Jette Viking Hv77 — 5QEP — position and weather

sailwx.info

Track history (hours):
 
Tides and Currents Weather Stations Pressure Air Temp Water Temp Dewpoint Dewpoint Depression Visibility Wind Speed Wind Dir Waves Ship Positions

Jette Viking Hv77

Last reported at 2017-Apr-23 21:43 UTC. Time now 2017-Apr-25 08:46 UTC.
Position N 57°30' E 010°30'.

Length 16 m.

Type: Fishing. MMSI: 220046000.

Date/timePositionNaut miles runAvg speedWind from/ knotsBaromVisibWave heightAir tempDewpointWater temp
2017-Apr-23 21:43N 57°30' E 010°30'0 0.0
2017-Apr-23 21:26N 57°30' E 010°30'0 0.0
2017-Apr-23 20:59N 57°30' E 010°30'0 0.0
2017-Apr-23 20:29N 57°30' E 010°30'0 0.0
2017-Apr-23 20:00N 57°30' E 010°30'0 0.0
2017-Apr-23 19:28N 57°30' E 010°30'0 0.0
2017-Apr-23 05:30N 57°30' E 010°30'0 0.0
2017-Apr-23 05:00N 57°30' E 010°30'0 0.0
2017-Apr-23 04:29N 57°30' E 010°30'0 0.0
2017-Apr-22 19:16N 57°30' E 010°30'0 0.0
2017-Apr-22 18:58N 57°30' E 010°30'  
2017-Apr-20 07:36N 57°30' E 010°30'0 0.0
2017-Apr-20 07:28N 57°30' E 010°30'0 0.0
2017-Apr-20 07:00N 57°30' E 010°30'0 0.0
2017-Apr-20 06:29N 57°30' E 010°30'0 0.0
2017-Apr-20 05:59N 57°30' E 010°30'0 0.0
2017-Apr-20 05:29N 57°30' E 010°30'0 0.0
2017-Apr-20 04:57N 57°30' E 010°30'0 0.0
2017-Apr-19 17:48N 57°30' E 010°30'0 0.0
2017-Apr-19 17:26N 57°30' E 010°30'0 0.0
2017-Apr-19 17:00N 57°30' E 010°30'0 0.0
2017-Apr-19 16:30N 57°30' E 010°30'7 0.5
2017-Apr-19 04:25N 57°26' E 010°41'3 7.2
2017-Apr-19 03:58N 57°24' E 010°45'12 2.3
2017-Apr-18 23:00N 57°36' E 010°42'1 1.3
2017-Apr-18 22:29N 57°35' E 010°42'1 2.5
2017-Apr-18 22:00N 57°34' E 010°42'1 2.6
2017-Apr-18 21:29N 57°32' E 010°42'6 2.5
2017-Apr-18 19:05N 57°27' E 010°44'0 2.6
2017-Apr-18 19:00N 57°26' E 010°44'2 0.0
2017-Apr-17 03:46N 57°25' E 010°45'12 2.4
2017-Apr-16 22:47N 57°37' E 010°42'0 0.9
2017-Apr-16 22:30N 57°36' E 010°42'1 2.4
2017-Apr-16 22:00N 57°35' E 010°42'1 2.5
2017-Apr-16 21:30N 57°34' E 010°42'2 2.6
2017-Apr-16 20:53N 57°32' E 010°42'4 2.5
2017-Apr-16 19:07N 57°28' E 010°43'0 2.5
2017-Apr-16 19:00N 57°28' E 010°43'1 2.5
2017-Apr-16 18:26N 57°26' E 010°44'8 0.4
2017-Apr-15 21:09N 57°30' E 010°30'0 0.0
2017-Apr-15 20:42N 57°30' E 010°30'0 0.0
2017-Apr-15 20:29N 57°30' E 010°30'0 0.0
2017-Apr-15 19:59N 57°30' E 010°30'0 0.0
2017-Apr-15 19:29N 57°30' E 010°30'0 0.0
2017-Apr-15 18:59N 57°30' E 010°30'  
Track history (hours):
 
Tides and Currents Weather Stations Pressure Air Temp Water Temp Dewpoint Dewpoint Depression Visibility Wind Speed Wind Dir Waves Ship Positions

Jette Viking Hv77

Last reported at 2017-Apr-23 21:43 UTC. Time now 2017-Apr-25 08:46 UTC.
Position N 57°30' E 010°30'.

Length 16 m.

Type: Fishing. MMSI: 220046000.

Date/timePositionNaut miles runAvg speedWind from/ knotsBaromVisibWave heightAir tempDewpointWater temp
2017-Apr-23 21:43N 57°30' E 010°30'0 0.0
2017-Apr-23 21:26N 57°30' E 010°30'0 0.0
2017-Apr-23 20:59N 57°30' E 010°30'0 0.0
2017-Apr-23 20:29N 57°30' E 010°30'0 0.0
2017-Apr-23 20:00N 57°30' E 010°30'0 0.0
2017-Apr-23 19:28N 57°30' E 010°30'0 0.0
2017-Apr-23 05:30N 57°30' E 010°30'0 0.0
2017-Apr-23 05:00N 57°30' E 010°30'0 0.0
2017-Apr-23 04:29N 57°30' E 010°30'0 0.0
2017-Apr-22 19:16N 57°30' E 010°30'0 0.0
2017-Apr-22 18:58N 57°30' E 010°30'  
2017-Apr-20 07:36N 57°30' E 010°30'0 0.0
2017-Apr-20 07:28N 57°30' E 010°30'0 0.0
2017-Apr-20 07:00N 57°30' E 010°30'0 0.0
2017-Apr-20 06:29N 57°30' E 010°30'0 0.0
2017-Apr-20 05:59N 57°30' E 010°30'0 0.0
2017-Apr-20 05:29N 57°30' E 010°30'0 0.0
2017-Apr-20 04:57N 57°30' E 010°30'0 0.0
2017-Apr-19 17:48N 57°30' E 010°30'0 0.0
2017-Apr-19 17:26N 57°30' E 010°30'0 0.0
2017-Apr-19 17:00N 57°30' E 010°30'0 0.0
2017-Apr-19 16:30N 57°30' E 010°30'7 0.5
2017-Apr-19 04:25N 57°26' E 010°41'3 7.2
2017-Apr-19 03:58N 57°24' E 010°45'12 2.3
2017-Apr-18 23:00N 57°36' E 010°42'1 1.3
2017-Apr-18 22:29N 57°35' E 010°42'1 2.5
2017-Apr-18 22:00N 57°34' E 010°42'1 2.6
2017-Apr-18 21:29N 57°32' E 010°42'6 2.5
2017-Apr-18 19:05N 57°27' E 010°44'0 2.6
2017-Apr-18 19:00N 57°26' E 010°44'2 0.0
2017-Apr-17 03:46N 57°25' E 010°45'12 2.4
2017-Apr-16 22:47N 57°37' E 010°42'0 0.9
2017-Apr-16 22:30N 57°36' E 010°42'1 2.4
2017-Apr-16 22:00N 57°35' E 010°42'1 2.5
2017-Apr-16 21:30N 57°34' E 010°42'2 2.6
2017-Apr-16 20:53N 57°32' E 010°42'4 2.5
2017-Apr-16 19:07N 57°28' E 010°43'0 2.5
2017-Apr-16 19:00N 57°28' E 010°43'1 2.5
2017-Apr-16 18:26N 57°26' E 010°44'8 0.4
2017-Apr-15 21:09N 57°30' E 010°30'0 0.0
2017-Apr-15 20:42N 57°30' E 010°30'0 0.0
2017-Apr-15 20:29N 57°30' E 010°30'0 0.0
2017-Apr-15 19:59N 57°30' E 010°30'0 0.0
2017-Apr-15 19:29N 57°30' E 010°30'0 0.0
2017-Apr-15 18:59N 57°30' E 010°30'  

Dump ship's entire track history